sensor_id;sensor_type;location;lat;lon;timestamp;pressure;altitude;pressure_sealevel;temperature;humidity
21504;BME280;10913;51.992;9.228;2023-07-29T00:02:11;99496.66;;;19.94;100.00
21504;BME280;10913;51.992;9.228;2023-07-29T00:04:40;99501.25;;;19.92;100.00
21504;BME280;10913;51.992;9.228;2023-07-29T00:07:05;99505.81;;;19.90;100.00
21504;BME280;10913;51.992;9.228;2023-07-29T00:09:30;99503.41;;;19.86;100.00
21504;BME280;10913;51.992;9.228;2023-07-29T00:11:56;99497.44;;;19.81;100.00
21504;BME280;10913;51.992;9.228;2023-07-29T00:14:21;99496.56;;;19.80;100.00
21504;BME280;10913;51.992;9.228;2023-07-29T00:16:46;99507.38;;;19.79;100.00
21504;BME280;10913;51.992;9.228;2023-07-29T00:19:12;99514.47;;;19.80;100.00
21504;BME280;10913;51.992;9.228;2023-07-29T00:21:41;99512.72;;;19.79;100.00
21504;BME280;10913;51.992;9.228;2023-07-29T00:24:06;99515.41;;;19.79;100.00
21504;BME280;10913;51.992;9.228;2023-07-29T00:26:31;99516.41;;;19.78;100.00
21504;BME280;10913;51.992;9.228;2023-07-29T00:28:58;99514.75;;;19.75;100.00
21504;BME280;10913;51.992;9.228;2023-07-29T00:31:23;99511.38;;;19.72;100.00
21504;BME280;10913;51.992;9.228;2023-07-29T00:33:49;99515.00;;;19.71;100.00
21504;BME280;10913;51.992;9.228;2023-07-29T00:36:14;99505.31;;;19.68;100.00
21504;BME280;10913;51.992;9.228;2023-07-29T00:38:39;99504.44;;;19.68;100.00
21504;BME280;10913;51.992;9.228;2023-07-29T00:41:05;99505.56;;;19.64;100.00
21504;BME280;10913;51.992;9.228;2023-07-29T00:43:30;99504.78;;;19.61;100.00
21504;BME280;10913;51.992;9.228;2023-07-29T00:45:56;99505.81;;;19.59;100.00
21504;BME280;10913;51.992;9.228;2023-07-29T00:48:23;99503.34;;;19.56;100.00
21504;BME280;10913;51.992;9.228;2023-07-29T00:50:49;99499.88;;;19.54;100.00
21504;BME280;10913;51.992;9.228;2023-07-29T00:53:15;99497.19;;;19.54;100.00
21504;BME280;10913;51.992;9.228;2023-07-29T00:55:41;99493.66;;;19.53;100.00
21504;BME280;10913;51.992;9.228;2023-07-29T00:58:07;99486.69;;;19.49;100.00
21504;BME280;10913;51.992;9.228;2023-07-29T01:00:32;99489.53;;;19.46;100.00
21504;BME280;10913;51.992;9.228;2023-07-29T01:02:57;99490.56;;;19.44;100.00
21504;BME280;10913;51.992;9.228;2023-07-29T01:05:27;99492.38;;;19.43;100.00
21504;BME280;10913;51.992;9.228;2023-07-29T01:13:36;99476.31;;;19.43;100.00
21504;BME280;10913;51.992;9.228;2023-07-29T01:16:10;99472.69;;;19.44;100.00
21504;BME280;10913;51.992;9.228;2023-07-29T01:18:38;99475.28;;;19.46;100.00
21504;BME280;10913;51.992;9.228;2023-07-29T01:21:08;99470.72;;;19.48;100.00
21504;BME280;10913;51.992;9.228;2023-07-29T01:23:34;99479.69;;;19.47;100.00
21504;BME280;10913;51.992;9.228;2023-07-29T01:26:01;99475.19;;;19.47;100.00
21504;BME280;10913;51.992;9.228;2023-07-29T01:28:27;99469.84;;;19.47;100.00
21504;BME280;10913;51.992;9.228;2023-07-29T01:31:01;99475.19;;;19.47;100.00
21504;BME280;10913;51.992;9.228;2023-07-29T01:33:30;99466.38;;;19.45;100.00
21504;BME280;10913;51.992;9.228;2023-07-29T01:36:05;99479.00;;;19.43;100.00
21504;BME280;10913;51.992;9.228;2023-07-29T01:38:34;99476.41;;;19.42;100.00
21504;BME280;10913;51.992;9.228;2023-07-29T01:41:04;99476.31;;;19.43;100.00
21504;BME280;10913;51.992;9.228;2023-07-29T01:43:31;99469.06;;;19.45;100.00
21504;BME280;10913;51.992;9.228;2023-07-29T01:45:57;99468.91;;;19.48;100.00
21504;BME280;10913;51.992;9.228;2023-07-29T01:48:23;99467.91;;;19.51;100.00
21504;BME280;10913;51.992;9.228;2023-07-29T01:50:48;99467.81;;;19.52;100.00
21504;BME280;10913;51.992;9.228;2023-07-29T01:53:13;99467.81;;;19.52;100.00
21504;BME280;10913;51.992;9.228;2023-07-29T01:55:39;99471.44;;;19.51;100.00
21504;BME280;10913;51.992;9.228;2023-07-29T01:58:04;99470.50;;;19.52;100.00
21504;BME280;10913;51.992;9.228;2023-07-29T02:00:30;99461.72;;;19.49;100.00
21504;BME280;10913;51.992;9.228;2023-07-29T02:02:55;99463.53;;;19.48;100.00
21504;BME280;10913;51.992;9.228;2023-07-29T02:05:20;99465.44;;;19.46;100.00
21504;BME280;10913;51.992;9.228;2023-07-29T02:07:46;99461.97;;;19.44;100.00
21504;BME280;10913;51.992;9.228;2023-07-29T02:10:11;99469.22;;;19.42;100.00
21504;BME280;10913;51.992;9.228;2023-07-29T02:12:36;99468.44;;;19.40;100.00
21504;BME280;10913;51.992;9.228;2023-07-29T02:15:03;99474.69;;;19.41;100.00
21504;BME280;10913;51.992;9.228;2023-07-29T02:17:28;99473.63;;;19.43;100.00
21504;BME280;10913;51.992;9.228;2023-07-29T02:19:53;99479.69;;;19.47;100.00
21504;BME280;10913;51.992;9.228;2023-07-29T02:22:19;99475.06;;;19.50;100.00
21504;BME280;10913;51.992;9.228;2023-07-29T02:24:44;99467.94;;;19.49;100.00
21504;BME280;10913;51.992;9.228;2023-07-29T02:27:11;99466.22;;;19.48;100.00
21504;BME280;10913;51.992;9.228;2023-07-29T02:29:36;99464.50;;;19.47;100.00
21504;BME280;10913;51.992;9.228;2023-07-29T02:32:02;99455.59;;;19.47;100.00
21504;BME280;10913;51.992;9.228;2023-07-29T02:34:27;99456.38;;;19.49;100.00
21504;BME280;10913;51.992;9.228;2023-07-29T02:36:53;99460.81;;;19.50;100.00
21504;BME280;10913;51.992;9.228;2023-07-29T02:39:18;99460.72;;;19.51;100.00
21504;BME280;10913;51.992;9.228;2023-07-29T02:41:43;99447.31;;;19.51;100.00
21504;BME280;10913;51.992;9.228;2023-07-29T02:44:09;99447.25;;;19.53;100.00
21504;BME280;10913;51.992;9.228;2023-07-29T02:46:34;99447.31;;;19.51;100.00
21504;BME280;10913;51.992;9.228;2023-07-29T02:49:02;99448.28;;;19.50;100.00
21504;BME280;10913;51.992;9.228;2023-07-29T02:51:28;99435.78;;;19.49;100.00
21504;BME280;10913;51.992;9.228;2023-07-29T02:53:53;99434.88;;;19.50;100.00
21504;BME280;10913;51.992;9.228;2023-07-29T02:56:18;99429.44;;;19.52;100.00
21504;BME280;10913;51.992;9.228;2023-07-29T02:58:44;99417.84;;;19.51;100.00
21504;BME280;10913;51.992;9.228;2023-07-29T03:01:10;99414.22;;;19.52;100.00
21504;BME280;10913;51.992;9.228;2023-07-29T03:03:35;99423.22;;;19.51;100.00
21504;BME280;10913;51.992;9.228;2023-07-29T03:06:06;99428.72;;;19.48;100.00
21504;BME280;10913;51.992;9.228;2023-07-29T03:08:31;99432.44;;;19.46;100.00
21504;BME280;10913;51.992;9.228;2023-07-29T03:10:57;99427.31;;;19.41;100.00
21504;BME280;10913;51.992;9.228;2023-07-29T03:13:23;99433.47;;;19.43;100.00
21504;BME280;10913;51.992;9.228;2023-07-29T03:15:48;99425.25;;;19.46;100.00
21504;BME280;10913;51.992;9.228;2023-07-29T03:18:14;99419.72;;;19.49;100.00
21504;BME280;10913;51.992;9.228;2023-07-29T03:20:39;99419.59;;;19.52;100.00
21504;BME280;10913;51.992;9.228;2023-07-29T03:23:05;99410.59;;;19.53;100.00
21504;BME280;10913;51.992;9.228;2023-07-29T03:25:30;99415.00;;;19.54;100.00
21504;BME280;10913;51.992;9.228;2023-07-29T03:27:56;99414.22;;;19.52;100.00
21504;BME280;10913;51.992;9.228;2023-07-29T03:30:22;99417.84;;;19.51;100.00
21504;BME280;10913;51.992;9.228;2023-07-29T03:32:49;99421.47;;;19.50;100.00
21504;BME280;10913;51.992;9.228;2023-07-29T03:35:15;99418.81;;;19.50;100.00
21504;BME280;10913;51.992;9.228;2023-07-29T03:37:40;99415.19;;;19.51;100.00
21504;BME280;10913;51.992;9.228;2023-07-29T03:40:06;99410.75;;;19.50;100.00
21504;BME280;10913;51.992;9.228;2023-07-29T03:42:32;99416.13;;;19.50;100.00
21504;BME280;10913;51.992;9.228;2023-07-29T03:44:58;99416.13;;;19.50;100.00
21504;BME280;10913;51.992;9.228;2023-07-29T03:47:23;99410.75;;;19.50;100.00
21504;BME280;10913;51.992;9.228;2023-07-29T03:49:49;99408.09;;;19.50;100.00
21504;BME280;10913;51.992;9.228;2023-07-29T03:52:14;99404.53;;;19.50;100.00
21504;BME280;10913;51.992;9.228;2023-07-29T03:54:40;99408.88;;;19.52;100.00
21504;BME280;10913;51.992;9.228;2023-07-29T03:57:06;99405.25;;;19.53;100.00
21504;BME280;10913;51.992;9.228;2023-07-29T03:59:32;99411.47;;;19.54;100.00
21504;BME280;10913;51.992;9.228;2023-07-29T04:01:57;99406.09;;;19.54;100.00
21504;BME280;10913;51.992;9.228;2023-07-29T04:04:22;99414.13;;;19.54;100.00
21504;BME280;10913;51.992;9.228;2023-07-29T04:06:48;99411.38;;;19.55;100.00
21504;BME280;10913;51.992;9.228;2023-07-29T04:09:13;99401.69;;;19.53;100.00
21504;BME280;10913;51.992;9.228;2023-07-29T04:11:39;99399.00;;;19.53;100.00
21504;BME280;10913;51.992;9.228;2023-07-29T04:14:04;99411.53;;;19.52;100.00
21504;BME280;10913;51.992;9.228;2023-07-29T04:16:29;99402.66;;;19.52;100.00
21504;BME280;10913;51.992;9.228;2023-07-29T04:18:55;99399.97;;;19.52;100.00
21504;BME280;10913;51.992;9.228;2023-07-29T04:21:20;99406.09;;;19.54;100.00
21504;BME280;10913;51.992;9.228;2023-07-29T04:23:45;99405.06;;;19.56;100.00
21504;BME280;10913;51.992;9.228;2023-07-29T04:26:11;99401.44;;;19.57;100.00
21504;BME280;10913;51.992;9.228;2023-07-29T04:28:36;99404.84;;;19.59;100.00
21504;BME280;10913;51.992;9.228;2023-07-29T04:31:02;99402.97;;;19.61;100.00
21504;BME280;10913;51.992;9.228;2023-07-29T04:33:29;99401.16;;;19.62;100.00
21504;BME280;10913;51.992;9.228;2023-07-29T04:35:55;99399.31;;;19.63;100.00
21504;BME280;10913;51.992;9.228;2023-07-29T04:38:20;99404.69;;;19.63;100.00
21504;BME280;10913;51.992;9.228;2023-07-29T04:40:45;99391.28;;;19.63;100.00
21504;BME280;10913;51.992;9.228;2023-07-29T04:43:11;99385.84;;;19.64;100.00
21504;BME280;10913;51.992;9.228;2023-07-29T04:45:36;99376.00;;;19.65;100.00
21504;BME280;10913;51.992;9.228;2023-07-29T04:48:07;99382.13;;;19.67;100.00
21504;BME280;10913;51.992;9.228;2023-07-29T04:50:35;99383.75;;;19.69;100.00
21504;BME280;10913;51.992;9.228;2023-07-29T04:53:00;99372.19;;;19.69;100.00
21504;BME280;10913;51.992;9.228;2023-07-29T04:55:28;99382.91;;;19.69;100.00
21504;BME280;10913;51.992;9.228;2023-07-29T04:57:54;99385.59;;;19.69;100.00
21504;BME280;10913;51.992;9.228;2023-07-29T05:00:19;99375.72;;;19.69;100.00
21504;BME280;10913;51.992;9.228;2023-07-29T05:02:45;99376.59;;;19.70;100.00
21504;BME280;10913;51.992;9.228;2023-07-29T05:05:10;99379.28;;;19.70;100.00
21504;BME280;10913;51.992;9.228;2023-07-29T05:07:35;99383.75;;;19.69;100.00
21504;BME280;10913;51.992;9.228;2023-07-29T05:10:01;99385.59;;;19.69;100.00
21504;BME280;10913;51.992;9.228;2023-07-29T05:12:26;99382.91;;;19.69;100.00
21504;BME280;10913;51.992;9.228;2023-07-29T05:14:52;99380.13;;;19.70;100.00
21504;BME280;10913;51.992;9.228;2023-07-29T05:17:17;99370.28;;;19.71;100.00
21504;BME280;10913;51.992;9.228;2023-07-29T05:19:42;99378.31;;;19.71;100.00
21504;BME280;10913;51.992;9.228;2023-07-29T05:22:08;99370.28;;;19.71;100.00
21504;BME280;10913;51.992;9.228;2023-07-29T05:24:33;99378.31;;;19.71;100.00
21504;BME280;10913;51.992;9.228;2023-07-29T05:26:59;99378.22;;;19.72;100.00
21504;BME280;10913;51.992;9.228;2023-07-29T05:29:24;99375.47;;;19.74;100.00
21504;BME280;10913;51.992;9.228;2023-07-29T05:31:49;99364.75;;;19.74;100.00
21504;BME280;10913;51.992;9.228;2023-07-29T05:34:15;99369.16;;;19.75;100.00
21504;BME280;10913;51.992;9.228;2023-07-29T05:36:42;99370.88;;;19.76;100.00
21504;BME280;10913;51.992;9.228;2023-07-29T05:39:10;99366.28;;;19.78;100.00
21504;BME280;10913;51.992;9.228;2023-07-29T05:41:37;99363.69;;;19.76;100.00
21504;BME280;10913;51.992;9.228;2023-07-29T05:44:03;99364.66;;;19.75;100.00
21504;BME280;10913;51.992;9.228;2023-07-29T05:46:28;99370.09;;;19.74;100.00
21504;BME280;10913;51.992;9.228;2023-07-29T05:48:55;99364.75;;;19.74;100.00
21504;BME280;10913;51.992;9.228;2023-07-29T05:51:23;99360.25;;;19.74;100.00
21504;BME280;10913;51.992;9.228;2023-07-29T05:53:49;99366.47;;;19.75;100.00
21504;BME280;10913;51.992;9.228;2023-07-29T05:56:14;99368.19;;;19.76;100.00
21504;BME280;10913;51.992;9.228;2023-07-29T05:58:40;99371.66;;;19.78;100.00
21504;BME280;10913;51.992;9.228;2023-07-29T06:01:05;99365.22;;;19.80;100.00
21504;BME280;10913;51.992;9.228;2023-07-29T06:03:31;99362.28;;;19.85;100.00
21504;BME280;10913;51.992;9.228;2023-07-29T06:05:57;99365.63;;;19.88;100.00
21504;BME280;10913;51.992;9.228;2023-07-29T06:08:22;99367.28;;;19.91;100.00
21504;BME280;10913;51.992;9.228;2023-07-29T06:10:48;99367.09;;;19.94;100.00
21504;BME280;10913;51.992;9.228;2023-07-29T06:13:13;99369.59;;;19.97;100.00
21504;BME280;10913;51.992;9.228;2023-07-29T06:15:39;99367.66;;;19.99;100.00
21504;BME280;10913;51.992;9.228;2023-07-29T06:18:04;99366.53;;;20.03;100.00
21504;BME280;10913;51.992;9.228;2023-07-29T06:20:30;99367.13;;;20.08;100.00
21504;BME280;10913;51.992;9.228;2023-07-29T06:22:55;99371.25;;;20.14;100.00
21504;BME280;10913;51.992;9.228;2023-07-29T06:25:21;99374.22;;;20.23;100.00
21504;BME280;10913;51.992;9.228;2023-07-29T06:27:47;99379.03;;;20.33;100.00
21504;BME280;10913;51.992;9.228;2023-07-29T06:30:13;99372.47;;;20.38;100.00
21504;BME280;10913;51.992;9.228;2023-07-29T06:32:38;99382.13;;;20.41;100.00
21504;BME280;10913;51.992;9.228;2023-07-29T06:35:04;99385.59;;;20.43;100.00
21504;BME280;10913;51.992;9.228;2023-07-29T06:37:29;99381.94;;;20.44;100.00
21504;BME280;10913;51.992;9.228;2023-07-29T06:39:55;99389.03;;;20.45;100.00
21504;BME280;10913;51.992;9.228;2023-07-29T06:42:20;99389.91;;;20.45;100.00
21504;BME280;10913;51.992;9.228;2023-07-29T06:44:46;99393.34;;;20.47;100.00
21504;BME280;10913;51.992;9.228;2023-07-29T06:47:12;99395.75;;;20.52;100.00
21504;BME280;10913;51.992;9.228;2023-07-29T06:49:37;99383.97;;;20.54;100.00
21504;BME280;10913;51.992;9.228;2023-07-29T06:52:03;99382.06;;;20.56;100.00
21504;BME280;10913;51.992;9.228;2023-07-29T06:54:28;99388.09;;;20.60;100.00
21504;BME280;10913;51.992;9.228;2023-07-29T06:56:54;99385.41;;;20.60;100.00
21504;BME280;10913;51.992;9.228;2023-07-29T06:59:20;99386.25;;;20.60;100.00
21504;BME280;10913;51.992;9.228;2023-07-29T07:01:46;99383.47;;;20.62;100.00
21504;BME280;10913;51.992;9.228;2023-07-29T07:04:11;99386.84;;;20.66;100.00
21504;BME280;10913;51.992;9.228;2023-07-29T07:06:37;99380.63;;;20.65;100.00
21504;BME280;10913;51.992;9.228;2023-07-29T07:09:02;99383.47;;;20.62;100.00
21504;BME280;10913;51.992;9.228;2023-07-29T07:11:28;99376.38;;;20.61;100.00
21504;BME280;10913;51.992;9.228;2023-07-29T07:13:54;99373.91;;;20.58;100.00
21504;BME280;10913;51.992;9.228;2023-07-29T07:16:19;99379.28;;;20.58;100.00
21504;BME280;10913;51.992;9.228;2023-07-29T07:18:45;99372.19;;;20.57;100.00
21504;BME280;10913;51.992;9.228;2023-07-29T07:21:11;99382.63;;;20.61;100.00
21504;BME280;10913;51.992;9.228;2023-07-29T07:23:36;99381.84;;;20.59;100.00
21504;BME280;10913;51.992;9.228;2023-07-29T07:26:02;99367.28;;;20.63;100.00
21504;BME280;10913;51.992;9.228;2023-07-29T07:28:27;99373.22;;;20.69;100.00
21504;BME280;10913;51.992;9.228;2023-07-29T07:30:53;99377.28;;;20.76;100.00
21504;BME280;10913;51.992;9.228;2023-07-29T07:33:21;99374.09;;;20.83;100.00
21504;BME280;10913;51.992;9.228;2023-07-29T07:35:46;99378.78;;;20.80;100.00
21504;BME280;10913;51.992;9.228;2023-07-29T07:38:11;99377.72;;;20.82;100.00
21504;BME280;10913;51.992;9.228;2023-07-29T07:40:37;99383.75;;;20.86;100.00
21504;BME280;10913;51.992;9.228;2023-07-29T07:43:02;99384.63;;;20.86;100.00
21504;BME280;10913;51.992;9.228;2023-07-29T07:45:28;99388.28;;;20.85;100.00
21504;BME280;10913;51.992;9.228;2023-07-29T07:47:54;99390.00;;;20.86;100.00
21504;BME280;10913;51.992;9.228;2023-07-29T07:50:20;99377.34;;;20.88;100.00
21504;BME280;10913;51.992;9.228;2023-07-29T07:52:45;99387.88;;;20.91;100.00
21504;BME280;10913;51.992;9.228;2023-07-29T07:55:11;99397.69;;;20.92;100.00
21504;BME280;10913;51.992;9.228;2023-07-29T07:57:36;99396.22;;;20.87;100.00
21504;BME280;10913;51.992;9.228;2023-07-29T08:00:02;99392.88;;;20.83;100.00
21504;BME280;10913;51.992;9.228;2023-07-29T08:02:29;99391.91;;;20.84;100.00
21504;BME280;10913;51.992;9.228;2023-07-29T08:04:54;99381.00;;;20.87;100.00
21504;BME280;10913;51.992;9.228;2023-07-29T08:07:20;99380.78;;;20.90;100.00
21504;BME280;10913;51.992;9.228;2023-07-29T08:09:46;99384.06;;;20.95;100.00
21504;BME280;10913;51.992;9.228;2023-07-29T08:12:11;99380.19;;;20.99;100.00
21504;BME280;10913;51.992;9.228;2023-07-29T08:14:37;99380.19;;;20.99;100.00
21504;BME280;10913;51.992;9.228;2023-07-29T08:17:02;99376.34;;;21.04;100.00
21504;BME280;10913;51.992;9.228;2023-07-29T08:19:28;99382.59;;;21.04;100.00
21504;BME280;10913;51.992;9.228;2023-07-29T08:21:53;99378.94;;;21.05;100.00
21504;BME280;10913;51.992;9.228;2023-07-29T08:24:19;99380.75;;;21.05;100.00
21504;BME280;10913;51.992;9.228;2023-07-29T08:26:44;99377.88;;;21.08;100.00
21504;BME280;10913;51.992;9.228;2023-07-29T08:29:11;99387.66;;;21.09;100.00
21504;BME280;10913;51.992;9.228;2023-07-29T08:31:36;99387.66;;;21.09;100.00
21504;BME280;10913;51.992;9.228;2023-07-29T08:34:02;99399.84;;;21.14;100.00
21504;BME280;10913;51.992;9.228;2023-07-29T08:36:27;99390.59;;;21.18;100.00
21504;BME280;10913;51.992;9.228;2023-07-29T08:38:53;99387.56;;;21.24;100.00
21504;BME280;10913;51.992;9.228;2023-07-29T08:41:25;99396.09;;;21.31;100.00
21504;BME280;10913;51.992;9.228;2023-07-29T08:44:10;99395.72;;;21.37;100.00
21504;BME280;10913;51.992;9.228;2023-07-29T08:46:38;99396.78;;;21.35;100.00
21504;BME280;10913;51.992;9.228;2023-07-29T08:49:04;99394.19;;;21.33;100.00
21504;BME280;10913;51.992;9.228;2023-07-29T08:51:31;99397.44;;;21.38;100.00
21504;BME280;10913;51.992;9.228;2023-07-29T08:53:58;99388.28;;;21.41;100.00
21504;BME280;10913;51.992;9.228;2023-07-29T08:56:24;99390.97;;;21.41;100.00
21504;BME280;10913;51.992;9.228;2023-07-29T08:58:51;99393.56;;;21.42;100.00
21504;BME280;10913;51.992;9.228;2023-07-29T09:01:17;99397.78;;;21.46;100.00
21504;BME280;10913;51.992;9.228;2023-07-29T09:03:43;99393.16;;;21.48;100.00
21504;BME280;10913;51.992;9.228;2023-07-29T09:06:08;99396.16;;;21.44;100.00
21504;BME280;10913;51.992;9.228;2023-07-29T09:08:34;99390.47;;;21.48;100.00
21504;BME280;10913;51.992;9.228;2023-07-29T09:11:00;99398.16;;;21.54;100.00
21504;BME280;10913;51.992;9.228;2023-07-29T09:13:26;99390.63;;;21.59;100.00
21504;BME280;10913;51.992;9.228;2023-07-29T09:15:57;99380.63;;;21.61;100.00
21504;BME280;10913;51.992;9.228;2023-07-29T09:18:26;99389.91;;;21.70;100.00
21504;BME280;10913;51.992;9.228;2023-07-29T09:20:53;99390.91;;;21.82;100.00
21504;BME280;10913;51.992;9.228;2023-07-29T09:23:18;99391.88;;;22.08;100.00
21504;BME280;10913;51.992;9.228;2023-07-29T09:25:46;99383.53;;;22.38;100.00
21504;BME280;10913;51.992;9.228;2023-07-29T09:28:14;99391.47;;;22.52;100.00
21504;BME280;10913;51.992;9.228;2023-07-29T09:30:41;99376.81;;;22.81;100.00
21504;BME280;10913;51.992;9.228;2023-07-29T09:33:09;99378.13;;;23.25;100.00
21504;BME280;10913;51.992;9.228;2023-07-29T09:35:35;99371.97;;;23.59;95.99
21504;BME280;10913;51.992;9.228;2023-07-29T09:38:02;99369.16;;;23.85;95.79
21504;BME280;10913;51.992;9.228;2023-07-29T09:40:34;99362.53;;;23.89;93.20
21504;BME280;10913;51.992;9.228;2023-07-29T09:43:00;99366.19;;;23.77;92.14
21504;BME280;10913;51.992;9.228;2023-07-29T09:45:26;99368.13;;;23.75;92.56
21504;BME280;10913;51.992;9.228;2023-07-29T09:47:57;99369.25;;;23.83;92.37
21504;BME280;10913;51.992;9.228;2023-07-29T09:50:26;99374.88;;;23.80;90.26
21504;BME280;10913;51.992;9.228;2023-07-29T09:52:55;99382.13;;;23.80;91.12
21504;BME280;10913;51.992;9.228;2023-07-29T09:55:22;99374.75;;;23.70;89.34
21504;BME280;10913;51.992;9.228;2023-07-29T09:57:53;99388.03;;;23.61;91.66
21504;BME280;10913;51.992;9.228;2023-07-29T10:00:18;99389.59;;;23.52;91.88
21504;BME280;10913;51.992;9.228;2023-07-29T10:02:44;99395.88;;;23.53;91.95
21504;BME280;10913;51.992;9.228;2023-07-29T10:05:10;99385.31;;;23.74;92.26
21504;BME280;10913;51.992;9.228;2023-07-29T10:07:39;99378.66;;;24.01;90.86
21504;BME280;10913;51.992;9.228;2023-07-29T10:10:07;99388.34;;;24.04;88.35
21504;BME280;10913;51.992;9.228;2023-07-29T10:12:34;99388.00;;;24.09;88.47
21504;BME280;10913;51.992;9.228;2023-07-29T10:15:02;99388.97;;;24.31;87.41
21504;BME280;10913;51.992;9.228;2023-07-29T10:17:29;99384.31;;;24.45;87.82
21504;BME280;10913;51.992;9.228;2023-07-29T10:19:56;99384.53;;;24.42;82.41
21504;BME280;10913;51.992;9.228;2023-07-29T10:22:24;99395.50;;;24.51;81.86
21504;BME280;10913;51.992;9.228;2023-07-29T10:24:52;99377.94;;;24.46;80.42
21504;BME280;10913;51.992;9.228;2023-07-29T10:27:19;99378.91;;;24.45;81.82
21504;BME280;10913;51.992;9.228;2023-07-29T10:29:46;99388.63;;;24.47;81.76
21504;BME280;10913;51.992;9.228;2023-07-29T10:32:12;99376.22;;;24.33;82.61
21504;BME280;10913;51.992;9.228;2023-07-29T10:34:38;99378.63;;;24.25;82.14
21504;BME280;10913;51.992;9.228;2023-07-29T10:37:05;99388.63;;;24.12;80.28
21504;BME280;10913;51.992;9.228;2023-07-29T10:39:41;99393.78;;;24.15;80.60
21504;BME280;10913;51.992;9.228;2023-07-29T10:42:16;99390.91;;;24.29;79.34
21504;BME280;10913;51.992;9.228;2023-07-29T10:44:46;99388.09;;;24.42;75.89
21504;BME280;10913;51.992;9.228;2023-07-29T10:47:16;99385.44;;;24.64;75.01
21504;BME280;10913;51.992;9.228;2023-07-29T10:50:00;99389.50;;;24.81;75.05
21504;BME280;10913;51.992;9.228;2023-07-29T10:55:01;99386.22;;;25.11;73.44
21504;BME280;10913;51.992;9.228;2023-07-29T10:57:36;99384.81;;;25.28;71.46
21504;BME280;10913;51.992;9.228;2023-07-29T11:00:03;99382.16;;;25.17;71.48
21504;BME280;10913;51.992;9.228;2023-07-29T11:02:36;99380.03;;;25.20;73.91
21504;BME280;10913;51.992;9.228;2023-07-29T11:05:06;99384.34;;;25.34;73.65
21504;BME280;10913;51.992;9.228;2023-07-29T11:07:47;99388.69;;;25.68;76.37
21504;BME280;10913;51.992;9.228;2023-07-29T11:10:14;99390.63;;;25.78;72.17
21504;BME280;10913;51.992;9.228;2023-07-29T11:12:46;99381.84;;;25.85;73.85
21504;BME280;10913;51.992;9.228;2023-07-29T11:15:26;99393.41;;;25.87;73.90
21504;BME280;10913;51.992;9.228;2023-07-29T11:17:57;99381.66;;;25.77;73.45
21504;BME280;10913;51.992;9.228;2023-07-29T11:20:31;99388.13;;;25.86;73.77
21504;BME280;10913;51.992;9.228;2023-07-29T11:22:59;99397.34;;;25.83;72.97
21504;BME280;10913;51.992;9.228;2023-07-29T11:25:27;99401.16;;;25.92;73.72
21504;BME280;10913;51.992;9.228;2023-07-29T11:27:56;99409.78;;;25.86;72.61
21504;BME280;10913;51.992;9.228;2023-07-29T11:30:22;99412.22;;;25.89;73.57
21504;BME280;10913;51.992;9.228;2023-07-29T11:32:55;99402.63;;;25.96;71.33
21504;BME280;10913;51.992;9.228;2023-07-29T11:35:21;99403.28;;;26.09;72.44
21504;BME280;10913;51.992;9.228;2023-07-29T11:37:52;99397.06;;;26.18;71.54
21504;BME280;10913;51.992;9.228;2023-07-29T11:40:19;99395.84;;;26.43;71.50
21504;BME280;10913;51.992;9.228;2023-07-29T11:42:46;99399.66;;;26.61;70.00
21504;BME280;10913;51.992;9.228;2023-07-29T11:45:13;99393.84;;;26.66;69.13
21504;BME280;10913;51.992;9.228;2023-07-29T11:47:39;99400.09;;;26.57;68.49
21504;BME280;10913;51.992;9.228;2023-07-29T11:50:06;99398.75;;;26.51;69.64
21504;BME280;10913;51.992;9.228;2023-07-29T11:52:35;99402.22;;;26.21;66.72
21504;BME280;10913;51.992;9.228;2023-07-29T11:55:02;99396.94;;;26.20;70.14
21504;BME280;10913;51.992;9.228;2023-07-29T11:57:30;99393.00;;;26.45;70.34
21504;BME280;10913;51.992;9.228;2023-07-29T11:59:55;99383.09;;;26.55;69.14
21504;BME280;10913;51.992;9.228;2023-07-29T12:02:22;99386.91;;;26.73;70.59
21504;BME280;10913;51.992;9.228;2023-07-29T12:04:51;99391.75;;;27.00;69.04
21504;BME280;10913;51.992;9.228;2023-07-29T12:07:18;99391.03;;;26.98;68.56
21504;BME280;10913;51.992;9.228;2023-07-29T12:09:47;99401.47;;;27.02;67.11
21504;BME280;10913;51.992;9.228;2023-07-29T12:12:14;99400.63;;;26.81;67.45
21504;BME280;10913;51.992;9.228;2023-07-29T12:14:43;99391.59;;;26.71;69.03
21504;BME280;10913;51.992;9.228;2023-07-29T12:17:09;99384.63;;;26.78;69.65
21504;BME280;10913;51.992;9.228;2023-07-29T12:19:39;99389.16;;;26.68;66.88
21504;BME280;10913;51.992;9.228;2023-07-29T12:22:06;99387.66;;;26.54;68.17
21504;BME280;10913;51.992;9.228;2023-07-29T12:24:33;99383.56;;;26.39;67.55
21504;BME280;10913;51.992;9.228;2023-07-29T12:27:01;99384.00;;;26.23;68.61
21504;BME280;10913;51.992;9.228;2023-07-29T12:29:26;99377.19;;;26.29;70.28
21504;BME280;10913;51.992;9.228;2023-07-29T12:32:00;99377.56;;;26.35;69.77
21504;BME280;10913;51.992;9.228;2023-07-29T12:34:27;99378.44;;;26.36;69.31
21504;BME280;10913;51.992;9.228;2023-07-29T12:36:57;99387.47;;;26.46;69.47
21504;BME280;10913;51.992;9.228;2023-07-29T12:39:32;99379.94;;;26.50;69.74
21504;BME280;10913;51.992;9.228;2023-07-29T12:42:00;99381.38;;;26.54;70.64
21504;BME280;10913;51.992;9.228;2023-07-29T12:44:30;99379.41;;;26.56;69.41
21504;BME280;10913;51.992;9.228;2023-07-29T12:46:55;99388.63;;;26.74;70.76
21504;BME280;10913;51.992;9.228;2023-07-29T12:49:21;99379.63;;;26.94;70.51
21504;BME280;10913;51.992;9.228;2023-07-29T12:51:48;99385.38;;;27.10;68.83
21504;BME280;10913;51.992;9.228;2023-07-29T12:54:13;99378.56;;;27.26;69.52
21504;BME280;10913;51.992;9.228;2023-07-29T12:56:38;99374.31;;;27.33;69.07
21504;BME280;10913;51.992;9.228;2023-07-29T12:59:05;99372.41;;;27.24;67.89